Main page
METAR-TAF:

METAR-TAF

Airports :

Lleida, Spain

Lleida-Alguaire

latitude: 41-43-40N, longitude: 000-32-09E, elevation: 350 m

METAR: missing

Time: 06:52 (04:52 UTC)

Forecast

The report was made 2 hours and 52 minutes ago, at 02:00 UTC
Forecast valid from 27 at 03 UTC to 28 at 03 UTC
Wind 4 kt from variable directions
Visibility 10 km or more
Few clouds at a height of 4000 ft
Becoming
from 27 at 08 UTC to 27 at 10 UTC
Wind 12 kt from the South/Southwest
Temporary
from 27 at 16 UTC to 27 at 21 UTC
Wind 20 kt from the South/Southwest with gusts up to 35 kt
Becoming
from 27 at 18 UTC to 27 at 20 UTC
Wind 4 kt from the East

TAF: LEDA 270200Z 2703/2803 VRB04KT 9999 FEW040 TX28/2713Z TN10/2706Z BECMG 2708/2710 20012KT TEMPO 2716/2721 20020G35KT BECMG 2718/2720 09004KT

Weather observations and forecasts of more than 4000 airports (METAR and TAF reports).

The available stations are represented by yellow and red dots on the map.

Hover mouse over dot to see the name of the station.

Then click to see weather observations and forecasts.

To change the map : click on the green buttons with a black cross to zoom in, on the green button with a dash to zoom out, or on the green arrows for adjacent maps.


METAR-TAF: